Terminal Aerodrome Forecast
Issued by NWS

Home | Current Version | Previous Version | Text Only | Print | Product List | Glossary On
Versions: 1 2 3 4 5 6 7 8 9 10 11 12 13
655
FTUS45 KABQ 302337
TAFGUP
TAF
KGUP 302337Z 3100/3124 26012G20KT P6SM VCTS SCT100CB BKN150
     FM310200 23008KT P6SM VCSH BKN090
     FM310500 VRB03KT P6SM BKN120
     FM311800 25010KT P6SM FEW080
     FM312100 26011G18KT P6SM VCTS BKN080CB=

USA.gov is the U.S. government's official web portal to all federal, state and local government web resources and services.